createdAt,value
2023-04-19T00:00:49.004Z,95.45
2023-04-19T00:03:18.411Z,95.63
2023-04-19T00:05:49.022Z,95.19
2023-04-19T00:08:17.714Z,94.94
2023-04-19T00:10:46.392Z,95.16
2023-04-19T00:13:15.144Z,95.94
2023-04-19T00:15:43.808Z,96.83
2023-04-19T00:18:12.449Z,96.24
2023-04-19T00:20:41.173Z,95.82
2023-04-19T00:23:11.240Z,95.51
2023-04-19T00:25:40.235Z,95.86
2023-04-19T00:28:08.919Z,95.86
2023-04-19T00:30:37.570Z,95.91
2023-04-19T00:33:12.817Z,96.34
2023-04-19T00:35:43.059Z,96.86
2023-04-19T00:38:13.229Z,96.25
2023-04-19T00:40:41.954Z,95.89
2023-04-19T00:43:10.723Z,95.52
2023-04-19T00:45:39.684Z,96.26
2023-04-19T00:48:08.606Z,96.52
2023-04-19T00:50:37.516Z,96.49
2023-04-19T00:53:06.463Z,97.58
2023-04-19T00:55:38.753Z,97.51
2023-04-19T00:58:08.831Z,97.91
2023-04-19T01:00:38.180Z,97.57
2023-04-19T01:03:08.986Z,97.24
2023-04-19T01:05:38.246Z,96.68
2023-04-19T01:08:08.437Z,96.53
2023-04-19T01:10:38.601Z,95.99
2023-04-19T01:13:07.293Z,96.66
2023-04-19T01:15:39.739Z,97.05
2023-04-19T01:18:08.487Z,96.10
2023-04-19T01:20:37.209Z,95.40
2023-04-19T01:23:11.563Z,94.92
2023-04-19T01:25:40.441Z,94.82
2023-04-19T01:28:09.132Z,94.71
2023-04-19T01:30:38.147Z,94.46
2023-04-19T01:33:06.765Z,93.84
2023-04-19T01:35:35.413Z,93.89
2023-04-19T01:38:05.463Z,93.54
2023-04-19T01:40:35.991Z,93.51
2023-04-19T01:43:07.691Z,93.20
2023-04-19T01:45:36.956Z,92.46
2023-04-19T01:48:06.182Z,92.40
2023-04-19T01:50:36.761Z,92.28
2023-04-19T01:53:06.661Z,91.81
2023-04-19T01:55:36.880Z,91.69
2023-04-19T01:58:05.533Z,91.55
2023-04-19T02:00:34.322Z,91.13
2023-04-19T02:03:06.408Z,91.95
2023-04-19T02:05:35.229Z,91.65
2023-04-19T02:08:03.852Z,90.91
2023-04-19T02:10:33.032Z,90.39
2023-04-19T02:13:03.210Z,91.07
2023-04-19T02:15:31.920Z,90.56
2023-04-19T02:18:01.374Z,90.95
2023-04-19T02:20:31.360Z,90.36
2023-04-19T02:23:00.156Z,89.98
2023-04-19T02:25:29.709Z,89.69
2023-04-19T02:27:58.420Z,89.16
2023-04-19T02:30:28.489Z,89.46
2023-04-19T02:32:58.813Z,89.66
2023-04-19T02:35:27.650Z,89.27
2023-04-19T02:37:56.665Z,89.00
2023-04-19T02:40:28.272Z,88.81
2023-04-19T02:42:56.930Z,89.24
2023-04-19T02:45:27.127Z,88.34
2023-04-19T02:47:57.027Z,88.06
2023-04-19T02:50:25.801Z,88.30
2023-04-19T02:52:55.080Z,88.08
2023-04-19T02:55:26.571Z,88.22
2023-04-19T02:58:05.660Z,88.67
2023-04-19T03:00:39.966Z,87.89
2023-04-19T03:03:13.016Z,87.62
2023-04-19T03:05:41.987Z,88.37
2023-04-19T03:08:12.117Z,87.52
2023-04-19T03:10:41.469Z,88.43
2023-04-19T03:13:11.384Z,87.90
2023-04-19T03:15:41.501Z,87.50
2023-04-19T03:18:11.049Z,87.98
2023-04-19T03:20:42.170Z,87.81
2023-04-19T03:23:11.022Z,88.48
2023-04-19T03:25:40.263Z,87.96
2023-04-19T03:28:20.728Z,87.45
2023-04-19T03:31:09.404Z,87.31
2023-04-19T03:33:39.752Z,87.25
2023-04-19T03:36:09.278Z,86.95
2023-04-19T03:38:40.899Z,87.13
2023-04-19T03:41:25.423Z,87.80
2023-04-19T03:44:17.471Z,88.20
2023-04-19T03:46:49.020Z,87.22
2023-04-19T03:49:22.654Z,87.82
2023-04-19T03:52:00.798Z,87.40
2023-04-19T03:54:29.855Z,87.95
2023-04-19T03:56:59.558Z,87.62
2023-04-19T03:59:28.691Z,87.33
2023-04-19T04:01:59.353Z,86.63
2023-04-19T04:04:30.708Z,87.90
2023-04-19T04:06:59.709Z,87.80
2023-04-19T04:09:28.387Z,87.65
2023-04-19T04:11:57.784Z,87.50
2023-04-19T04:14:26.876Z,87.63
2023-04-19T04:17:00.122Z,87.23
2023-04-19T04:19:30.578Z,87.08
2023-04-19T04:21:59.797Z,87.77
2023-04-19T04:24:30.271Z,87.11
2023-04-19T04:27:13.599Z,87.22
2023-04-19T04:29:44.082Z,86.63
2023-04-19T04:32:14.404Z,86.50
2023-04-19T04:34:45.823Z,87.34
2023-04-19T04:37:20.956Z,86.38
2023-04-19T04:39:49.930Z,85.49
2023-04-19T04:42:21.725Z,85.57
2023-04-19T04:44:51.193Z,85.34
2023-04-19T04:47:20.313Z,85.12
2023-04-19T04:49:56.849Z,84.05
2023-04-19T04:52:25.788Z,84.15
2023-04-19T04:55:03.181Z,84.50
2023-04-19T04:57:35.644Z,84.70
2023-04-19T05:00:07.952Z,84.01
2023-04-19T05:02:45.276Z,83.21
2023-04-19T05:05:15.787Z,83.64
2023-04-19T05:07:44.537Z,83.72
2023-04-19T05:10:13.797Z,83.17
2023-04-19T05:12:47.017Z,82.52
2023-04-19T05:15:16.926Z,83.40
2023-04-19T05:17:50.821Z,82.96
2023-04-19T05:20:22.950Z,82.99
2023-04-19T05:23:00.794Z,82.09
2023-04-19T05:25:29.886Z,81.75
2023-04-19T05:27:59.129Z,81.34
2023-04-19T05:30:33.222Z,82.20
2023-04-19T05:33:02.772Z,81.23
2023-04-19T05:35:33.035Z,81.32
2023-04-19T05:38:01.878Z,79.39
2023-04-19T05:40:31.011Z,78.69
2023-04-19T05:43:00.699Z,78.40
2023-04-19T05:45:29.689Z,76.41
2023-04-19T05:47:58.453Z,75.29
2023-04-19T05:50:58.190Z,76.79
2023-04-19T05:53:48.047Z,74.51
2023-04-19T05:56:17.040Z,72.98
2023-04-19T05:58:45.762Z,73.98
2023-04-19T06:01:14.645Z,73.18
2023-04-19T06:03:43.616Z,73.91
2023-04-19T06:06:14.888Z,72.61
2023-04-19T06:08:43.697Z,71.81
2023-04-19T06:11:23.223Z,70.78
2023-04-19T06:13:53.513Z,71.32
2023-04-19T06:16:22.731Z,70.86
2023-04-19T06:18:51.569Z,70.26
2023-04-19T06:21:21.661Z,70.69
2023-04-19T06:23:50.283Z,69.86
2023-04-19T06:26:19.216Z,69.53
2023-04-19T06:28:47.862Z,69.90
2023-04-19T06:31:16.570Z,69.17
2023-04-19T06:33:46.069Z,68.54
2023-04-19T06:36:14.847Z,67.42
2023-04-19T06:38:46.629Z,67.03
2023-04-19T06:41:15.381Z,67.05
2023-04-19T06:43:44.994Z,66.98
2023-04-19T06:46:15.918Z,64.65
2023-04-19T06:48:44.811Z,65.79
2023-04-19T06:51:13.489Z,64.90
2023-04-19T06:53:42.146Z,64.04
2023-04-19T06:56:13.504Z,61.60
2023-04-19T06:58:42.196Z,58.15
2023-04-19T07:01:10.921Z,57.57
2023-04-19T07:03:39.920Z,58.05
2023-04-19T07:06:09.156Z,58.36
2023-04-19T07:08:49.185Z,58.91
2023-04-19T07:11:21.232Z,59.70
2023-04-19T07:13:52.059Z,57.57
2023-04-19T07:16:21.894Z,58.31
2023-04-19T07:18:50.704Z,55.34
2023-04-19T07:21:19.399Z,56.42
2023-04-19T07:23:48.144Z,55.96
2023-04-19T07:26:16.902Z,55.77
2023-04-19T07:28:47.710Z,57.52
2023-04-19T07:31:17.811Z,57.13
2023-04-19T07:33:47.052Z,55.58
2023-04-19T07:36:15.931Z,54.69
2023-04-19T07:38:44.855Z,54.14
2023-04-19T07:41:13.761Z,53.77
2023-04-19T07:43:42.575Z,54.50
2023-04-19T07:46:16.145Z,54.80
2023-04-19T07:48:44.999Z,53.20
2023-04-19T07:51:16.849Z,53.09
2023-04-19T07:53:48.167Z,54.07
2023-04-19T07:56:17.141Z,54.50
2023-04-19T07:58:50.907Z,55.45
2023-04-19T08:01:26.955Z,55.31
2023-04-19T08:03:55.895Z,53.58
2023-04-19T08:06:24.887Z,53.44
2023-04-19T08:08:53.677Z,53.11
2023-04-19T08:11:22.357Z,53.21
2023-04-19T08:14:28.510Z,53.84
2023-04-19T08:17:19.519Z,52.55
2023-04-19T08:19:29.828Z,52.60
2023-04-19T08:21:58.580Z,51.35
2023-04-19T08:24:27.609Z,52.13
2023-04-19T08:26:57.090Z,53.02
2023-04-19T08:29:27.521Z,52.97
2023-04-19T08:31:57.687Z,52.94
2023-04-19T08:34:26.472Z,51.51
2023-04-19T08:37:03.531Z,51.33
2023-04-19T08:39:34.405Z,52.15
2023-04-19T08:42:13.316Z,52.64
2023-04-19T08:45:13.763Z,55.54
2023-04-19T08:47:59.554Z,53.13
2023-04-19T08:53:16.499Z,53.02
2023-04-19T08:56:08.797Z,52.84
2023-04-19T08:58:57.981Z,51.82
2023-04-19T09:01:34.548Z,53.47
2023-04-19T09:04:34.054Z,56.33
2023-04-19T09:06:57.190Z,53.44
2023-04-19T09:09:37.013Z,51.06
2023-04-19T09:12:18.819Z,51.49
2023-04-19T09:17:20.736Z,51.52
2023-04-19T09:19:51.314Z,52.63
2023-04-19T09:22:20.306Z,50.91
2023-04-19T09:27:30.496Z,50.09
2023-04-19T09:30:01.157Z,47.46
2023-04-19T09:32:31.464Z,47.97
2023-04-19T09:35:01.994Z,49.87
2023-04-19T09:37:56.793Z,49.08
2023-04-19T09:40:25.381Z,48.22
2023-04-19T09:43:08.583Z,46.30
2023-04-19T09:45:44.328Z,48.39
2023-04-19T09:48:14.602Z,47.02
2023-04-19T09:51:04.561Z,46.51
2023-04-19T09:53:35.482Z,46.89
2023-04-19T09:56:06.281Z,46.67
2023-04-19T09:58:48.905Z,48.19
2023-04-19T10:01:22.648Z,48.37
2023-04-19T10:03:53.091Z,49.17
2023-04-19T10:08:56.820Z,48.15
2023-04-19T10:11:37.249Z,48.96
2023-04-19T10:14:08.630Z,48.18
2023-04-19T10:16:39.649Z,47.86
2023-04-19T10:19:12.903Z,48.00
2023-04-19T10:21:46.750Z,47.69
2023-04-19T10:24:18.552Z,49.15
2023-04-19T10:27:12.277Z,48.56
2023-04-19T10:30:01.952Z,46.00
2023-04-19T10:32:38.299Z,46.48
2023-04-19T10:35:12.008Z,46.56
2023-04-19T10:38:03.005Z,47.36
2023-04-19T10:41:04.253Z,44.75
2023-04-19T10:43:34.415Z,44.49
2023-04-19T10:46:09.205Z,44.69
2023-04-19T10:48:53.722Z,44.42
2023-04-19T10:51:28.151Z,45.03
2023-04-19T10:54:00.515Z,44.77
2023-04-19T10:57:10.316Z,43.17
2023-04-19T10:59:40.514Z,44.26
2023-04-19T11:02:30.863Z,44.79
2023-04-19T11:05:04.151Z,45.45
2023-04-19T11:07:41.288Z,45.53
2023-04-19T11:10:12.885Z,45.56
2023-04-19T11:12:46.035Z,46.65
2023-04-19T11:15:14.818Z,46.12
2023-04-19T11:17:43.649Z,43.29
2023-04-19T11:20:14.795Z,42.01
2023-04-19T11:22:46.268Z,42.63
2023-04-19T11:25:19.548Z,42.03
2023-04-19T11:27:50.953Z,41.82
2023-04-19T11:30:22.718Z,41.53
2023-04-19T11:32:55.002Z,41.54
2023-04-19T11:35:25.670Z,39.17
2023-04-19T11:37:56.380Z,40.73
2023-04-19T11:40:27.720Z,40.88
2023-04-19T11:43:00.574Z,40.95
2023-04-19T11:45:34.516Z,41.87
2023-04-19T11:48:07.753Z,40.28
2023-04-19T11:50:39.994Z,40.44
2023-04-19T11:53:17.197Z,41.75
2023-04-19T11:55:51.524Z,41.29
2023-04-19T11:58:31.157Z,42.05
2023-04-19T12:01:06.653Z,43.04
2023-04-19T12:03:37.195Z,42.64
2023-04-19T12:06:09.219Z,45.18
2023-04-19T12:08:40.332Z,49.34
2023-04-19T12:11:10.633Z,52.70
2023-04-19T12:13:40.948Z,51.36
2023-04-19T12:16:10.070Z,50.31
2023-04-19T12:18:50.305Z,50.29
2023-04-19T12:21:32.123Z,49.15
2023-04-19T12:24:03.767Z,50.57
2023-04-19T12:26:34.167Z,47.95
2023-04-19T12:29:04.887Z,48.74
2023-04-19T12:31:34.067Z,48.34
2023-04-19T12:34:03.104Z,45.80
2023-04-19T12:36:31.894Z,45.42
2023-04-19T12:39:00.616Z,45.80
2023-04-19T12:41:29.317Z,44.86
2023-04-19T12:43:59.372Z,45.29
2023-04-19T12:46:28.479Z,43.17
2023-04-19T12:48:57.567Z,43.06
2023-04-19T12:51:27.989Z,43.78
2023-04-19T12:53:56.750Z,43.10
2023-04-19T12:56:37.982Z,44.36
2023-04-19T12:59:08.050Z,44.64
2023-04-19T13:01:37.329Z,44.32
2023-04-19T13:04:09.130Z,43.84
2023-04-19T13:06:38.433Z,44.28
2023-04-19T13:09:14.360Z,44.92
2023-04-19T13:11:43.917Z,43.82
2023-04-19T13:14:14.699Z,42.80
2023-04-19T13:16:43.793Z,44.52
2023-04-19T13:19:12.942Z,44.21
2023-04-19T13:21:45.278Z,41.60
2023-04-19T13:24:15.976Z,41.79
2023-04-19T13:26:46.518Z,41.17
2023-04-19T13:29:17.641Z,40.24
2023-04-19T13:31:49.515Z,40.90
2023-04-19T13:34:19.014Z,41.93
2023-04-19T13:36:50.015Z,41.87
2023-04-19T13:39:21.306Z,41.43
2023-04-19T13:41:50.416Z,40.87
2023-04-19T13:44:20.696Z,40.58
2023-04-19T13:46:49.837Z,39.60
2023-04-19T13:49:22.225Z,39.04
2023-04-19T13:51:51.161Z,38.03
2023-04-19T13:54:21.322Z,37.92
2023-04-19T13:56:52.271Z,38.70
2023-04-19T13:59:26.135Z,40.09
2023-04-19T14:01:56.018Z,41.21
2023-04-19T14:04:25.562Z,41.05
2023-04-19T14:06:54.840Z,40.45
2023-04-19T14:09:23.610Z,40.86
2023-04-19T14:11:58.963Z,41.35
2023-04-19T14:14:31.615Z,42.90
2023-04-19T14:17:01.663Z,43.47
2023-04-19T14:19:32.235Z,44.73
2023-04-19T14:22:02.094Z,46.51
2023-04-19T14:24:32.211Z,47.24
2023-04-19T14:29:39.601Z,46.46
2023-04-19T14:32:26.072Z,49.89
2023-04-19T14:34:57.302Z,51.70
2023-04-19T14:37:26.324Z,55.14
2023-04-19T14:39:55.620Z,57.01
2023-04-19T14:42:26.315Z,60.21
2023-04-19T14:45:00.837Z,63.77
2023-04-19T14:47:29.901Z,63.71
2023-04-19T14:49:59.469Z,64.06
2023-04-19T14:52:30.459Z,66.33
2023-04-19T14:54:59.943Z,66.96
2023-04-19T14:57:29.298Z,67.60
2023-04-19T15:00:01.419Z,68.77
2023-04-19T15:02:30.489Z,67.15
2023-04-19T15:04:59.544Z,66.99
2023-04-19T15:07:28.688Z,67.71
2023-04-19T15:09:57.369Z,66.38
2023-04-19T15:12:26.323Z,66.58
2023-04-19T15:14:55.182Z,66.64
2023-04-19T15:17:26.824Z,68.24
2023-04-19T15:19:55.659Z,67.26
2023-04-19T15:22:24.679Z,66.91
2023-04-19T15:24:53.740Z,67.03
2023-04-19T15:27:22.863Z,67.64
2023-04-19T15:29:52.257Z,66.61
2023-04-19T15:32:21.285Z,66.54
2023-04-19T15:34:51.689Z,68.67
2023-04-19T15:37:21.102Z,69.58
2023-04-19T15:39:50.330Z,70.45
2023-04-19T15:42:19.127Z,70.31
2023-04-19T15:44:48.007Z,70.77
2023-04-19T15:47:17.381Z,71.51
2023-04-19T15:49:47.446Z,70.49
2023-04-19T15:52:18.929Z,70.05
2023-04-19T15:54:49.216Z,68.90
2023-04-19T15:57:18.089Z,70.47
2023-04-19T15:59:46.959Z,69.33
2023-04-19T16:02:15.916Z,69.01
2023-04-19T16:04:47.876Z,68.88
2023-04-19T16:07:18.309Z,69.06
2023-04-19T16:09:47.016Z,68.69
2023-04-19T16:12:15.823Z,69.70
2023-04-19T16:14:44.542Z,69.53
2023-04-19T16:17:13.233Z,69.03
2023-04-19T16:19:42.180Z,68.71
2023-04-19T16:22:13.873Z,68.79
2023-04-19T16:24:44.071Z,69.32
2023-04-19T16:27:13.931Z,70.90
2023-04-19T16:29:45.192Z,69.94
2023-04-19T16:32:14.227Z,68.87
2023-04-19T16:34:43.415Z,69.09
2023-04-19T16:37:12.046Z,69.30
2023-04-19T16:39:41.515Z,69.47
2023-04-19T16:42:12.649Z,69.30
2023-04-19T16:44:41.489Z,68.90
2023-04-19T16:47:10.696Z,69.14
2023-04-19T16:49:39.525Z,69.83
2023-04-19T16:52:08.197Z,69.36
2023-04-19T16:54:38.009Z,69.00
2023-04-19T16:57:06.924Z,68.88
2023-04-19T16:59:37.214Z,68.52
2023-04-19T17:02:08.960Z,68.54
2023-04-19T17:04:38.218Z,67.70
2023-04-19T17:07:08.801Z,67.83
2023-04-19T17:09:38.105Z,67.58
2023-04-19T17:12:34.845Z,68.36
2023-04-19T17:15:06.878Z,69.17
2023-04-19T17:17:38.402Z,69.20
2023-04-19T17:20:09.132Z,68.89
2023-04-19T17:22:38.040Z,68.91
2023-04-19T17:25:08.119Z,69.48
2023-04-19T17:27:39.151Z,71.02
2023-04-19T17:30:10.816Z,71.59
2023-04-19T17:32:39.658Z,71.35
2023-04-19T17:35:09.523Z,71.54
2023-04-19T17:37:38.471Z,73.18
2023-04-19T17:40:09.364Z,72.83
2023-04-19T17:42:38.365Z,73.13
2023-04-19T17:45:11.343Z,74.31
2023-04-19T17:47:40.339Z,74.22
2023-04-19T17:50:13.018Z,75.10
2023-04-19T17:52:42.221Z,75.62
2023-04-19T17:55:11.520Z,76.64
2023-04-19T17:57:40.789Z,76.54
2023-04-19T18:00:17.195Z,77.06
2023-04-19T18:02:46.973Z,75.96
2023-04-19T18:05:17.638Z,75.40
2023-04-19T18:07:46.874Z,74.90
2023-04-19T18:10:16.000Z,74.21
2023-04-19T18:12:46.098Z,74.37
2023-04-19T18:15:17.160Z,74.23
2023-04-19T18:17:46.642Z,74.35
2023-04-19T18:20:16.659Z,73.85
2023-04-19T18:22:49.065Z,73.78
2023-04-19T18:25:18.089Z,74.75
2023-04-19T18:27:48.300Z,74.65
2023-04-19T18:30:19.389Z,74.44
2023-04-19T18:32:50.145Z,75.12
2023-04-19T18:35:19.180Z,75.12
2023-04-19T18:37:47.900Z,74.88
2023-04-19T18:40:17.743Z,75.47
2023-04-19T18:42:46.889Z,75.70
2023-04-19T18:45:17.843Z,76.36
2023-04-19T18:47:47.399Z,75.53
2023-04-19T18:50:19.028Z,75.24
2023-04-19T18:52:48.152Z,75.13
2023-04-19T18:55:18.062Z,77.09
2023-04-19T18:57:46.696Z,76.57
2023-04-19T19:00:19.036Z,76.10
2023-04-19T19:02:48.060Z,76.37
2023-04-19T19:05:16.987Z,76.08
2023-04-19T19:07:46.099Z,75.12
2023-04-19T19:10:19.022Z,75.29
2023-04-19T19:12:50.940Z,78.12
2023-04-19T19:15:21.091Z,79.09
2023-04-19T19:17:50.701Z,79.79
2023-04-19T19:20:20.520Z,82.84
2023-04-19T19:22:49.482Z,82.30
2023-04-19T19:25:18.657Z,82.51
2023-04-19T19:28:05.379Z,82.01
2023-04-19T19:30:39.853Z,82.98
2023-04-19T19:33:09.190Z,84.62
2023-04-19T19:35:39.613Z,85.29
2023-04-19T19:38:08.734Z,83.55
2023-04-19T19:40:58.241Z,84.19
2023-04-19T19:43:26.608Z,86.23
2023-04-19T19:45:56.830Z,86.67
2023-04-19T19:48:26.481Z,86.43
2023-04-19T19:53:31.974Z,88.02
2023-04-19T19:56:01.832Z,86.47
2023-04-19T19:58:48.181Z,87.14
2023-04-19T20:01:22.601Z,87.92
2023-04-19T20:03:52.568Z,88.16
2023-04-19T20:08:54.472Z,88.30
2023-04-19T20:11:23.630Z,88.83
2023-04-19T20:13:52.476Z,88.61
2023-04-19T20:16:23.506Z,89.25
2023-04-19T20:18:52.732Z,89.24
2023-04-19T20:21:21.499Z,89.53
2023-04-19T20:24:19.647Z,89.79
2023-04-19T20:26:49.612Z,89.22
2023-04-19T20:29:18.426Z,88.26
2023-04-19T20:31:48.749Z,88.67
2023-04-19T20:34:17.876Z,89.22
2023-04-19T20:36:47.303Z,90.16
2023-04-19T20:39:16.378Z,88.97
2023-04-19T20:41:47.978Z,88.60
2023-04-19T20:44:17.811Z,88.28
2023-04-19T20:46:48.837Z,89.51
2023-04-19T20:49:17.701Z,89.25
2023-04-19T20:51:48.460Z,90.15
2023-04-19T20:54:17.209Z,90.43
2023-04-19T20:56:45.896Z,87.41
2023-04-19T20:59:14.884Z,88.51
2023-04-19T21:01:43.899Z,88.36
2023-04-19T21:04:14.288Z,89.46
2023-04-19T21:06:45.154Z,89.57
2023-04-19T21:09:14.278Z,89.40
2023-04-19T21:11:42.951Z,89.31
2023-04-19T21:14:11.671Z,89.96
2023-04-19T21:16:40.538Z,89.34
2023-04-19T21:19:09.237Z,88.70
2023-04-19T21:21:39.398Z,89.51
2023-04-19T21:24:09.779Z,88.52
2023-04-19T21:26:38.476Z,89.73
2023-04-19T21:29:07.166Z,90.03
2023-04-19T21:31:35.820Z,90.69
2023-04-19T21:34:04.940Z,90.86
2023-04-19T21:36:33.717Z,90.51
2023-04-19T21:39:04.097Z,90.57
2023-04-19T21:41:32.804Z,89.70
2023-04-19T21:44:01.537Z,88.80
2023-04-19T21:46:30.231Z,89.38
2023-04-19T21:48:58.947Z,89.41
2023-04-19T21:51:27.689Z,89.52
2023-04-19T21:53:56.436Z,89.56
2023-04-19T21:56:26.788Z,90.72
2023-04-19T21:58:55.576Z,89.98
2023-04-19T22:01:24.256Z,90.29
2023-04-19T22:03:53.120Z,89.97
2023-04-19T22:06:22.079Z,89.27
2023-04-19T22:08:51.425Z,88.89
2023-04-19T22:11:20.128Z,88.50
2023-04-19T22:13:50.308Z,88.03
2023-04-19T22:16:19.162Z,89.09
2023-04-19T22:18:48.119Z,90.08
2023-04-19T22:21:16.861Z,90.55
2023-04-19T22:23:46.660Z,88.67
2023-04-19T22:26:15.364Z,88.47
2023-04-19T22:28:44.162Z,89.12
2023-04-19T22:31:14.212Z,89.81
2023-04-19T22:33:42.904Z,90.38
2023-04-19T22:36:11.774Z,90.13
2023-04-19T22:38:40.430Z,89.71
2023-04-19T22:41:09.129Z,88.83
2023-04-19T22:43:38.006Z,88.96
2023-04-19T22:46:06.949Z,88.75
2023-04-19T22:48:37.325Z,89.48
2023-04-19T22:51:06.578Z,89.53
2023-04-19T22:53:35.563Z,89.49
2023-04-19T22:56:04.348Z,89.28
2023-04-19T22:58:33.098Z,88.72
2023-04-19T23:01:01.931Z,88.71
2023-04-19T23:03:30.692Z,88.01
2023-04-19T23:06:03.508Z,88.20
2023-04-19T23:08:33.443Z,88.01
2023-04-19T23:11:02.260Z,88.10
2023-04-19T23:13:30.972Z,88.15
2023-04-19T23:15:59.851Z,89.50
2023-04-19T23:18:30.029Z,89.68
2023-04-19T23:21:00.171Z,89.59
2023-04-19T23:23:28.869Z,89.29
2023-04-19T23:25:57.541Z,89.23
2023-04-19T23:28:26.332Z,89.02
2023-04-19T23:30:55.122Z,88.81
2023-04-19T23:33:23.847Z,88.56
2023-04-19T23:35:52.815Z,87.46
2023-04-19T23:38:23.177Z,87.59
2023-04-19T23:40:51.883Z,87.25
2023-04-19T23:43:20.533Z,87.43
2023-04-19T23:45:49.205Z,86.71
2023-04-19T23:48:17.961Z,87.05
2023-04-19T23:50:46.602Z,87.26
2023-04-19T23:53:15.261Z,87.08
2023-04-19T23:55:45.324Z,86.49
2023-04-19T23:58:14.185Z,86.88
